Time;durP1;ratioP1;P1;durP2;ratioP2;P2;SDS_P1;SDS_P2;PMS_P1;PMS_P2;Temp;Humidity;BMP_temperature;BMP_pressure;BME280_temperature;BME280_humidity;BME280_pressure;Samples;Min_cycle;Max_cycle;Signal;HPM_P1;HPM_P2
2022/09/13 00:00:33;;;;;;;15.93;14.23;;;17.30;99.90;;;;;;5051823;28;20057;-67
2022/09/13 00:02:59;;;;;;;17.17;14.32;;;17.30;99.90;;;;;;5014737;28;20046;-67
2022/09/13 00:05:25;;;;;;;15.80;14.13;;;17.20;99.90;;;;;;5054048;28;20362;-67
2022/09/13 00:07:51;;;;;;;15.15;13.65;;;17.30;99.90;;;;;;5017806;28;20552;-67
2022/09/13 00:10:16;;;;;;;16.40;14.60;;;17.20;99.90;;;;;;5054015;28;20417;-67
2022/09/13 00:12:42;;;;;;;16.33;14.63;;;17.20;99.90;;;;;;5050819;28;20091;-67
2022/09/13 00:15:08;;;;;;;18.65;16.80;;;17.30;99.90;;;;;;5052721;28;20053;-67
2022/09/13 00:17:34;;;;;;;16.25;14.20;;;17.20;99.90;;;;;;5015811;28;20033;-67
2022/09/13 00:20:00;;;;;;;17.52;15.68;;;17.20;99.90;;;;;;5017081;28;20033;-67
2022/09/13 00:22:26;;;;;;;18.85;15.20;;;17.20;99.90;;;;;;5049516;28;20088;-67
2022/09/13 00:24:52;;;;;;;18.27;16.38;;;17.20;99.90;;;;;;5050495;28;20076;-67
2022/09/13 00:27:18;;;;;;;18.02;16.13;;;17.20;99.90;;;;;;5019611;28;20081;-67
2022/09/13 00:29:43;;;;;;;19.25;17.23;;;17.20;99.90;;;;;;5050594;28;20041;-67
2022/09/13 00:32:09;;;;;;;22.88;18.85;;;17.20;99.90;;;;;;5057039;28;20030;-67
2022/09/13 00:34:35;;;;;;;21.33;18.38;;;17.20;99.90;;;;;;5053266;28;20358;-67
2022/09/13 00:37:00;;;;;;;20.23;18.20;;;17.20;99.90;;;;;;5054671;28;20084;-67
2022/09/13 00:39:26;;;;;;;22.08;17.83;;;17.20;99.90;;;;;;5049882;28;20069;-67
2022/09/13 00:41:52;;;;;;;20.85;18.63;;;17.20;99.90;;;;;;5017046;28;20064;-67
2022/09/13 00:44:51;;;;;;;20.85;18.75;;;17.20;99.90;;;;;;5019096;28;20182;-67
2022/09/13 00:47:26;;;;;;;19.65;17.60;;;17.20;99.90;;;;;;5055038;28;20037;-67
2022/09/13 00:50:00;;;;;;;22.83;20.25;;;17.20;99.90;;;;;;5020532;28;20057;-67
2022/09/13 00:52:29;;;;;;;21.13;18.70;;;17.20;99.90;;;;;;5025344;28;20517;-67
2022/09/13 00:55:01;;;;;;;23.67;20.30;;;17.20;99.90;;;;;;5022768;28;20042;-67
2022/09/13 00:57:29;;;;;;;25.75;21.38;;;17.20;99.90;;;;;;5020970;28;20049;-67
2022/09/13 01:00:12;;;;;;;23.00;20.45;;;17.20;99.90;;;;;;5052257;28;20134;-67
2022/09/13 01:03:04;;;;;;;25.75;20.92;;;17.20;99.90;;;;;;5055517;28;20462;-67
2022/09/13 01:05:37;;;;;;;23.08;20.60;;;17.10;99.90;;;;;;5020957;28;20037;-66
2022/09/13 01:08:19;;;;;;;22.65;20.38;;;17.20;99.90;;;;;;5019202;28;20046;-68
2022/09/13 01:10:46;;;;;;;23.33;19.60;;;17.20;99.90;;;;;;5019758;28;20044;-67
2022/09/13 01:13:21;;;;;;;28.13;21.52;;;17.20;99.90;;;;;;5057583;28;20042;-68
2022/09/13 01:15:47;;;;;;;21.55;19.25;;;17.20;99.90;;;;;;5050515;28;20358;-68
2022/09/13 01:18:14;;;;;;;23.67;20.08;;;17.20;99.90;;;;;;5054384;28;20045;-67
2022/09/13 01:21:07;;;;;;;23.52;21.00;;;17.20;99.90;;;;;;5035794;28;20041;-68
2022/09/13 01:23:54;;;;;;;24.45;21.85;;;17.20;99.90;;;;;;5019821;28;20096;-67
2022/09/13 01:26:29;;;;;;;32.65;22.60;;;17.20;99.90;;;;;;5026145;28;20037;-67
2022/09/13 01:29:22;;;;;;;29.90;22.98;;;17.20;99.90;;;;;;5014959;28;20046;-66
2022/09/13 01:32:13;;;;;;;21.98;19.67;;;17.20;99.90;;;;;;5054621;28;20041;-67
2022/09/13 01:35:00;;;;;;;41.30;25.73;;;17.20;99.90;;;;;;5047453;28;20038;-67
2022/09/13 01:37:25;;;;;;;28.92;23.60;;;17.20;99.90;;;;;;5051738;28;20049;-67
2022/09/13 01:40:31;;;;;;;24.63;22.02;;;17.20;99.90;;;;;;5022319;28;20038;-68
2022/09/13 01:43:00;;;;;;;32.95;25.48;;;17.20;99.90;;;;;;5022023;28;20041;-67
2022/09/13 01:45:47;;;;;;;32.47;26.33;;;17.20;99.90;;;;;;5039617;28;20850;-67
2022/09/13 01:48:34;;;;;;;36.25;27.45;;;17.20;99.90;;;;;;5019852;28;20067;-67
2022/09/13 01:51:08;;;;;;;39.40;27.25;;;17.20;99.90;;;;;;5018190;28;20045;-67
2022/09/13 01:53:48;;;;;;;28.88;23.75;;;17.20;99.90;;;;;;5016326;28;20410;-67
2022/09/13 01:56:38;;;;;;;36.03;25.85;;;17.20;99.90;;;;;;5017464;28;20057;-67
2022/09/13 01:59:31;;;;;;;38.08;25.92;;;17.20;99.90;;;;;;5025810;28;20053;-68
2022/09/13 02:02:06;;;;;;;31.65;24.48;;;17.20;99.90;;;;;;5051277;28;20112;-67
2022/09/13 02:04:46;;;;;;;32.95;24.75;;;17.20;99.90;;;;;;5052858;28;20052;-67
2022/09/13 02:07:16;;;;;;;49.05;28.95;;;17.20;99.90;;;;;;5017667;28;20048;-68
2022/09/13 02:09:47;;;;;;;57.15;28.60;;;17.20;99.90;;;;;;5055406;28;20465;-67
2022/09/13 02:12:18;;;;;;;30.27;24.42;;;17.20;99.90;;;;;;5050551;28;20065;-67
2022/09/13 02:14:50;;;;;;;29.70;23.77;;;17.20;99.90;;;;;;5023605;28;20037;-67
2022/09/13 02:17:22;;;;;;;35.70;25.58;;;17.20;99.90;;;;;;5053682;28;20144;-67
2022/09/13 02:19:57;;;;;;;34.92;26.42;;;17.20;99.90;;;;;;5052756;28;20537;-66
2022/09/13 02:22:33;;;;;;;28.42;23.40;;;17.20;99.90;;;;;;5016580;28;20041;-67
2022/09/13 02:25:05;;;;;;;26.75;22.13;;;17.20;99.90;;;;;;5023052;28;20041;-67
2022/09/13 02:27:33;;;;;;;27.58;21.33;;;17.20;99.90;;;;;;5018559;28;20549;-67
2022/09/13 02:30:09;;;;;;;26.33;22.70;;;17.20;99.90;;;;;;5053792;28;20394;-67
2022/09/13 02:32:48;;;;;;;27.50;21.80;;;17.20;99.90;;;;;;5017965;28;20470;-67
2022/09/13 02:35:23;;;;;;;25.92;21.15;;;17.20;99.90;;;;;;5055077;28;20068;-67
2022/09/13 02:38:09;;;;;;;28.23;22.40;;;17.20;99.90;;;;;;5049525;28;20046;-67
2022/09/13 02:40:42;;;;;;;31.27;22.77;;;17.20;99.90;;;;;;5014851;28;20052;-67
2022/09/13 02:43:28;;;;;;;23.90;21.20;;;17.20;99.90;;;;;;5053064;28;20128;-67
2022/09/13 02:46:36;;;;;;;24.25;20.80;;;17.20;99.90;;;;;;5016518;28;20103;-67
2022/09/13 02:49:23;;;;;;;22.50;19.52;;;17.20;99.90;;;;;;5015992;28;20037;-67
2022/09/13 02:52:22;;;;;;;24.05;20.08;;;17.20;99.90;;;;;;5050792;28;20041;-67
2022/09/13 02:55:05;;;;;;;22.52;19.77;;;17.20;99.90;;;;;;5053748;28;20044;-67
2022/09/13 02:57:40;;;;;;;24.05;18.58;;;17.30;99.90;;;;;;5021196;28;20258;-67
2022/09/13 03:00:07;;;;;;;25.42;19.98;;;17.20;99.90;;;;;;5050426;28;20456;-66
2022/09/13 03:02:33;;;;;;;21.13;18.83;;;17.20;99.90;;;;;;5050446;28;20104;-67
2022/09/13 03:05:00;;;;;;;23.00;19.10;;;17.30;99.90;;;;;;5019052;28;20073;-68
2022/09/13 03:07:26;;;;;;;39.65;23.42;;;17.20;99.90;;;;;;5055347;28;20538;-66
2022/09/13 03:10:00;;;;;;;26.95;20.23;;;17.30;99.90;;;;;;5015999;28;20178;-67
2022/09/13 03:13:10;;;;;;;24.73;21.52;;;17.30;99.90;;;;;;5018010;28;20624;-67
2022/09/13 03:16:23;;;;;;;30.15;21.33;;;17.30;99.90;;;;;;5011739;28;20050;-67
2022/09/13 03:19:04;;;;;;;34.70;24.35;;;17.30;99.90;;;;;;4995133;28;20064;-67
2022/09/13 03:22:13;;;;;;;28.85;21.63;;;17.30;99.90;;;;;;5053638;28;20489;-66
2022/09/13 03:24:49;;;;;;;25.15;21.35;;;17.30;99.90;;;;;;5017005;28;20038;-66
2022/09/13 03:27:33;;;;;;;37.20;23.20;;;17.20;99.90;;;;;;5019816;28;20038;-67
2022/09/13 03:30:07;;;;;;;23.48;19.92;;;17.20;99.90;;;;;;5013547;28;20116;-66
2022/09/13 03:32:36;;;;;;;26.40;20.23;;;17.20;99.90;;;;;;5055226;28;20120;-67
2022/09/13 03:35:37;;;;;;;33.47;23.02;;;17.20;99.90;;;;;;5019753;28;20497;-67
2022/09/13 03:38:17;;;;;;;27.38;20.33;;;17.20;99.90;;;;;;5025913;28;20088;-67
2022/09/13 03:40:43;;;;;;;22.63;19.80;;;17.20;99.90;;;;;;5050670;28;20408;-67
2022/09/13 03:43:34;;;;;;;26.92;20.25;;;17.20;99.90;;;;;;5021533;28;20035;-67
2022/09/13 03:46:05;;;;;;;22.20;18.80;;;17.20;99.90;;;;;;5024812;28;20037;-67
2022/09/13 03:48:36;;;;;;;22.17;16.90;;;17.20;99.90;;;;;;5054104;28;20515;-66
2022/09/13 03:51:04;;;;;;;20.77;17.40;;;17.30;99.90;;;;;;5054388;28;20037;-66
2022/09/13 03:53:32;;;;;;;24.75;17.17;;;17.30;99.90;;;;;;5021046;28;20045;-66
2022/09/13 03:55:58;;;;;;;25.73;17.55;;;17.30;99.90;;;;;;5020632;28;20140;-67
2022/09/13 03:58:25;;;;;;;22.85;17.25;;;17.30;99.90;;;;;;5023384;28;20484;-66
2022/09/13 04:00:53;;;;;;;20.05;16.83;;;17.30;99.90;;;;;;5047246;28;20050;-67
2022/09/13 04:03:19;;;;;;;20.83;16.98;;;17.30;99.90;;;;;;5020235;28;20500;-66
2022/09/13 04:05:45;;;;;;;19.17;16.60;;;17.30;99.90;;;;;;5051913;28;20050;-67
2022/09/13 04:08:11;;;;;;;21.70;17.05;;;17.40;99.90;;;;;;5026522;28;20041;-67
2022/09/13 04:10:37;;;;;;;18.27;16.30;;;17.40;99.90;;;;;;5021337;28;20503;-66
2022/09/13 04:13:03;;;;;;;17.73;15.90;;;17.30;99.90;;;;;;5054009;28;20080;-67
2022/09/13 04:15:32;;;;;;;18.10;15.25;;;17.40;99.90;;;;;;5059693;28;20073;-67
2022/09/13 04:17:58;;;;;;;20.35;15.82;;;17.30;99.90;;;;;;5054035;28;20262;-66
2022/09/13 04:20:24;;;;;;;19.33;16.50;;;17.30;99.90;;;;;;5020842;28;20117;-67
2022/09/13 04:22:54;;;;;;;18.80;15.45;;;17.40;99.90;;;;;;5022136;28;20112;-67
2022/09/13 04:25:21;;;;;;;20.20;15.40;;;17.40;99.90;;;;;;5054155;28;20042;-67
2022/09/13 04:27:48;;;;;;;23.50;16.63;;;17.40;99.90;;;;;;5022702;28;20050;-67
2022/09/13 04:30:14;;;;;;;22.77;16.75;;;17.40;99.90;;;;;;5049859;28;20042;-68
2022/09/13 04:32:43;;;;;;;18.17;15.20;;;17.50;99.90;;;;;;5056971;28;20034;-68
2022/09/13 04:35:09;;;;;;;17.73;15.10;;;17.50;99.90;;;;;;5023351;28;20155;-68
2022/09/13 04:37:35;;;;;;;17.05;14.18;;;17.50;99.90;;;;;;5022701;28;20133;-68
2022/09/13 04:40:01;;;;;;;19.73;14.75;;;17.50;99.90;;;;;;5053788;28;20132;-68
2022/09/13 04:42:27;;;;;;;19.25;14.82;;;17.50;99.90;;;;;;5049367;28;20037;-68
2022/09/13 04:44:52;;;;;;;26.55;17.17;;;17.50;99.90;;;;;;5050492;28;20042;-68
2022/09/13 04:47:18;;;;;;;16.90;14.50;;;17.50;99.90;;;;;;5057951;28;20044;-69
2022/09/13 04:49:44;;;;;;;30.20;18.05;;;17.50;99.90;;;;;;5018554;28;20044;-68
2022/09/13 04:52:09;;;;;;;18.65;15.63;;;17.50;99.90;;;;;;5054357;28;20034;-68
2022/09/13 04:54:35;;;;;;;26.88;17.58;;;17.60;99.90;;;;;;5048169;28;20038;-68
2022/09/13 04:57:00;;;;;;;30.30;18.33;;;17.50;99.90;;;;;;5053654;28;20091;-69
2022/09/13 04:59:26;;;;;;;19.80;16.55;;;17.50;99.90;;;;;;5023352;28;20120;-68
2022/09/13 05:01:52;;;;;;;21.33;16.80;;;17.60;99.90;;;;;;5054954;28;20154;-68
2022/09/13 05:04:18;;;;;;;19.73;15.55;;;17.50;99.90;;;;;;5047414;28;20068;-68
2022/09/13 05:06:43;;;;;;;24.90;17.42;;;17.60;99.90;;;;;;5055267;28;20126;-69
2022/09/13 05:09:13;;;;;;;20.45;15.65;;;17.60;99.90;;;;;;5059635;28;20163;-69
2022/09/13 05:11:39;;;;;;;19.30;15.95;;;17.60;99.90;;;;;;5025811;28;20504;-68
2022/09/13 05:14:05;;;;;;;18.80;15.48;;;17.60;99.90;;;;;;5029238;28;20045;-69
2022/09/13 05:16:32;;;;;;;22.25;16.02;;;17.60;99.90;;;;;;5055801;28;20510;-68
2022/09/13 05:18:59;;;;;;;17.10;13.93;;;17.60;99.90;;;;;;5055012;28;20139;-69
2022/09/13 05:21:26;;;;;;;17.98;15.35;;;17.60;99.90;;;;;;5040548;28;20556;-69
2022/09/13 05:23:53;;;;;;;16.67;12.63;;;17.60;99.90;;;;;;5043129;28;20119;-68
2022/09/13 05:26:22;;;;;;;15.25;13.38;;;17.60;99.90;;;;;;5041707;28;20037;-68
2022/09/13 05:28:48;;;;;;;15.95;13.60;;;17.60;99.90;;;;;;5025798;28;20045;-69
2022/09/13 05:31:31;;;;;;;17.88;13.65;;;17.60;99.90;;;;;;5028199;28;20029;-69
2022/09/13 05:34:00;;;;;;;18.02;12.48;;;17.70;99.90;;;;;;5039759;28;20098;-69
2022/09/13 05:36:26;;;;;;;14.35;10.75;;;17.60;99.90;;;;;;5051256;28;20121;-69
2022/09/13 05:38:53;;;;;;;12.48;11.15;;;17.70;99.90;;;;;;5047135;28;20485;-69
2022/09/13 05:41:19;;;;;;;13.68;10.80;;;17.70;99.90;;;;;;5035017;28;20063;-69
2022/09/13 05:43:45;;;;;;;11.68;10.48;;;17.70;99.90;;;;;;5049331;28;20045;-69
2022/09/13 05:46:12;;;;;;;9.77;8.52;;;17.70;99.90;;;;;;5056310;28;20049;-69
2022/09/13 05:48:39;;;;;;;14.57;10.23;;;17.70;99.90;;;;;;5038135;28;20045;-69
2022/09/13 05:51:07;;;;;;;10.98;8.15;;;17.70;99.90;;;;;;5061528;28;20045;-69
2022/09/13 05:53:34;;;;;;;11.35;6.95;;;17.70;99.90;;;;;;5053279;28;20404;-68
2022/09/13 05:56:00;;;;;;;8.82;6.90;;;17.60;99.90;;;;;;5044603;28;20041;-68
2022/09/13 05:58:26;;;;;;;9.95;6.63;;;17.60;99.90;;;;;;5020461;28;20033;-68
2022/09/13 06:00:55;;;;;;;10.48;5.00;;;17.60;99.90;;;;;;5058366;28;20561;-68
2022/09/13 06:03:24;;;;;;;9.50;5.03;;;17.70;99.90;;;;;;5020812;28;20452;-68
2022/09/13 06:05:55;;;;;;;8.85;3.97;;;17.70;99.90;;;;;;5020381;28;20081;-68
2022/09/13 06:08:21;;;;;;;6.05;4.40;;;17.60;99.90;;;;;;5053426;28;20075;-68
2022/09/13 06:11:00;;;;;;;9.27;4.15;;;17.60;99.90;;;;;;5057549;28;20048;-69
2022/09/13 06:13:27;;;;;;;6.85;3.85;;;17.60;99.90;;;;;;5024956;28;20033;-68
2022/09/13 06:15:55;;;;;;;5.43;3.33;;;17.50;99.90;;;;;;5041380;28;20034;-68
2022/09/13 06:18:21;;;;;;;6.05;3.03;;;17.60;99.90;;;;;;5039627;28;20401;-68
2022/09/13 06:20:47;;;;;;;6.78;3.13;;;17.50;99.90;;;;;;5039856;28;20071;-67
2022/09/13 06:23:13;;;;;;;8.55;2.72;;;17.50;99.90;;;;;;5022798;28;20439;-68
2022/09/13 06:25:40;;;;;;;5.95;2.78;;;17.50;99.90;;;;;;5019765;28;20049;-68
2022/09/13 06:28:07;;;;;;;4.95;2.78;;;17.50;99.90;;;;;;5013200;28;20501;-68
2022/09/13 06:30:32;;;;;;;5.38;2.33;;;17.50;99.90;;;;;;5019533;28;20095;-68
2022/09/13 06:32:58;;;;;;;8.63;2.55;;;17.50;99.90;;;;;;5061532;28;20096;-68
2022/09/13 06:35:24;;;;;;;5.07;2.35;;;17.50;99.90;;;;;;5021088;28;20042;-68
2022/09/13 06:37:53;;;;;;;3.92;1.60;;;17.50;99.90;;;;;;5055484;28;20049;-68
2022/09/13 06:40:21;;;;;;;6.70;2.40;;;17.50;99.90;;;;;;5061182;28;20123;-68
2022/09/13 06:42:47;;;;;;;6.25;2.00;;;17.50;99.90;;;;;;5062174;28;20134;-68
2022/09/13 06:45:13;;;;;;;6.43;2.28;;;17.50;99.90;;;;;;5054699;28;20096;-68
2022/09/13 06:47:39;;;;;;;5.93;2.42;;;17.50;99.90;;;;;;5057761;28;20083;-68
2022/09/13 06:50:06;;;;;;;7.47;2.33;;;17.40;99.90;;;;;;5025314;28;20044;-69
2022/09/13 06:52:32;;;;;;;6.90;2.38;;;17.40;99.90;;;;;;5055515;28;20073;-68
2022/09/13 06:54:57;;;;;;;8.57;2.67;;;17.30;99.90;;;;;;5054992;28;20521;-68
2022/09/13 06:57:23;;;;;;;6.60;2.40;;;17.40;99.90;;;;;;5018968;28;20049;-68
2022/09/13 06:59:49;;;;;;;4.30;2.30;;;17.40;99.90;;;;;;5039985;28;20497;-68
2022/09/13 07:02:15;;;;;;;5.57;2.55;;;17.40;99.90;;;;;;5056908;28;20041;-69
2022/09/13 07:04:40;;;;;;;8.77;2.55;;;17.40;99.90;;;;;;5057555;28;20052;-68
2022/09/13 07:07:06;;;;;;;7.28;1.67;;;17.40;99.90;;;;;;5059372;28;20285;-69
2022/09/13 07:09:33;;;;;;;5.57;2.60;;;17.50;99.90;;;;;;5062845;28;20041;-69
2022/09/13 07:11:59;;;;;;;6.80;2.80;;;17.60;99.90;;;;;;5015210;28;20056;-68
2022/09/13 07:14:27;;;;;;;5.32;2.47;;;17.60;99.90;;;;;;5043026;28;20037;-68
2022/09/13 07:16:56;;;;;;;7.80;1.95;;;17.70;99.90;;;;;;5051458;28;20053;-68
2022/09/13 07:19:26;;;;;;;6.60;2.20;;;17.70;99.90;;;;;;5024084;28;20033;-68
2022/09/13 07:21:53;;;;;;;6.28;2.00;;;17.80;99.90;;;;;;5055162;28;20124;-68
2022/09/13 07:24:20;;;;;;;6.07;1.80;;;17.80;99.90;;;;;;5055458;28;20386;-68
2022/09/13 07:26:47;;;;;;;3.55;1.77;;;17.90;99.90;;;;;;5020863;28;20057;-69
2022/09/13 07:29:18;;;;;;;5.47;1.63;;;17.90;99.90;;;;;;5053058;28;20081;-68
2022/09/13 07:31:46;;;;;;;5.45;1.63;;;17.90;99.90;;;;;;5040551;28;20052;-68
2022/09/13 07:34:15;;;;;;;4.90;1.58;;;18.00;99.90;;;;;;5020369;28;20041;-68
2022/09/13 07:36:41;;;;;;;5.47;1.33;;;18.10;99.90;;;;;;5022677;28;20056;-68
2022/09/13 07:39:07;;;;;;;4.45;1.20;;;18.10;99.90;;;;;;5021530;28;20526;-68
2022/09/13 07:41:33;;;;;;;4.78;1.35;;;18.10;99.90;;;;;;5042295;28;20038;-68
2022/09/13 07:44:00;;;;;;;7.25;1.15;;;18.10;99.90;;;;;;5037846;28;20124;-68
2022/09/13 07:46:31;;;;;;;5.35;1.25;;;18.30;99.90;;;;;;5055760;28;20081;-67
2022/09/13 07:48:57;;;;;;;8.70;2.05;;;18.50;99.90;;;;;;5020835;28;20501;-68
2022/09/13 07:51:26;;;;;;;9.77;1.25;;;18.70;99.90;;;;;;5041935;28;20091;-68
2022/09/13 07:53:55;;;;;;;4.50;0.82;;;19.10;99.90;;;;;;5040148;28;20057;-68
2022/09/13 07:56:23;;;;;;;8.57;1.20;;;19.40;99.90;;;;;;5020371;28;20041;-68
2022/09/13 07:58:50;;;;;;;9.05;1.02;;;19.60;99.90;;;;;;5024951;28;20064;-68
2022/09/13 08:01:20;;;;;;;4.18;0.77;;;19.80;99.90;;;;;;5059569;28;20048;-68
2022/09/13 08:04:07;;;;;;;6.38;1.00;;;20.00;99.90;;;;;;5038066;28;20041;-67
2022/09/13 08:06:34;;;;;;;7.30;0.73;;;20.20;99.90;;;;;;5052961;28;20053;-67
2022/09/13 08:09:00;;;;;;;2.75;0.60;;;20.10;99.90;;;;;;5017059;28;20041;-68
2022/09/13 08:11:32;;;;;;;5.85;0.70;;;20.00;99.90;;;;;;5040093;28;20029;-67
2022/09/13 08:13:58;;;;;;;4.15;0.77;;;19.90;99.90;;;;;;5041104;28;20041;-68
2022/09/13 08:16:26;;;;;;;7.43;0.60;;;19.70;99.90;;;;;;5042382;28;20079;-67
2022/09/13 08:18:55;;;;;;;4.90;0.73;;;19.70;99.90;;;;;;5056857;28;20140;-67
2022/09/13 08:21:23;;;;;;;6.93;0.52;;;19.50;99.90;;;;;;5059195;28;20029;-67
2022/09/13 08:23:48;;;;;;;4.72;0.52;;;19.40;99.90;;;;;;5023128;28;20053;-67
2022/09/13 08:26:15;;;;;;;4.57;0.50;;;19.30;99.90;;;;;;5037241;28;20048;-67
2022/09/13 08:28:42;;;;;;;5.70;0.80;;;19.30;99.90;;;;;;5040519;28;20052;-67
2022/09/13 08:31:08;;;;;;;6.50;0.90;;;19.20;99.90;;;;;;5037053;28;20045;-66
2022/09/13 08:33:34;;;;;;;4.63;0.57;;;19.20;99.90;;;;;;5038147;28;20063;-66
2022/09/13 08:36:01;;;;;;;4.13;0.60;;;19.20;99.90;;;;;;5038362;28;20045;-67
2022/09/13 08:38:27;;;;;;;4.13;0.55;;;19.40;99.90;;;;;;5040161;28;20041;-67
2022/09/13 08:41:02;;;;;;;5.20;0.45;;;20.00;99.90;;;;;;5054681;28;20194;-67
2022/09/13 08:43:46;;;;;;;3.08;0.57;;;20.40;99.90;;;;;;5041958;28;20357;-68
2022/09/13 08:46:27;;;;;;;7.00;0.73;;;20.80;99.90;;;;;;5017474;28;20057;-67
2022/09/13 08:49:05;;;;;;;4.10;0.60;;;20.80;99.90;;;;;;5022596;28;20119;-67
2022/09/13 08:52:03;;;;;;;5.07;0.73;;;20.60;99.90;;;;;;5034890;28;20120;-67
2022/09/13 08:54:29;;;;;;;3.00;0.30;;;20.50;99.90;;;;;;5042949;28;20049;-67
2022/09/13 08:57:07;;;;;;;9.48;0.60;;;20.60;99.90;;;;;;5052152;28;20119;-67
2022/09/13 08:59:57;;;;;;;2.72;0.40;;;21.00;99.90;;;;;;5056794;28;20112;-67
2022/09/13 09:02:28;;;;;;;2.10;0.50;;;22.20;99.90;;;;;;5044360;28;20051;-67
2022/09/13 09:05:27;;;;;;;5.95;0.60;;;23.30;99.90;;;;;;5024269;28;20140;-67
2022/09/13 09:07:58;;;;;;;3.00;0.38;;;24.20;99.90;;;;;;5041827;28;20519;-68
2022/09/13 09:10:32;;;;;;;1.98;0.40;;;24.90;99.90;;;;;;5045261;28;20452;-66
2022/09/13 09:13:21;;;;;;;1.70;0.30;;;24.60;99.90;;;;;;5037814;28;20036;-67
2022/09/13 09:15:55;;;;;;;2.45;0.30;;;23.90;99.90;;;;;;5037997;28;20064;-67
2022/09/13 09:18:24;;;;;;;2.20;0.40;;;23.30;99.90;;;;;;5041800;28;20107;-66
2022/09/13 09:20:53;;;;;;;3.08;0.50;;;23.40;99.90;;;;;;5041914;28;20044;-66
2022/09/13 09:23:22;;;;;;;1.83;0.43;;;23.60;99.90;;;;;;5040042;28;20033;-66
2022/09/13 09:25:54;;;;;;;2.83;0.40;;;23.50;99.90;;;;;;5040896;28;20456;-66
2022/09/13 09:28:20;;;;;;;3.50;0.30;;;23.90;99.90;;;;;;5060778;28;20059;-66
2022/09/13 09:30:59;;;;;;;2.50;0.70;;;24.40;98.20;;;;;;5041616;28;20412;-65
2022/09/13 09:33:53;;;;;;;4.15;0.63;;;24.60;96.40;;;;;;5043063;28;20048;-66
2022/09/13 09:36:36;;;;;;;2.60;0.35;;;25.10;92.90;;;;;;5042182;28;20522;-66
2022/09/13 09:39:10;;;;;;;1.77;0.37;;;25.50;92.10;;;;;;5044912;28;20032;-66
2022/09/13 09:41:37;;;;;;;3.85;0.60;;;25.70;92.00;;;;;;5042713;28;20116;-66
2022/09/13 09:44:02;;;;;;;3.75;0.55;;;25.80;93.00;;;;;;5042778;28;20028;-66
2022/09/13 09:46:33;;;;;;;3.00;0.25;;;26.00;90.30;;;;;;5043774;28;20040;-66
2022/09/13 09:52:09;;;;;;;4.88;0.40;;;26.30;81.00;;;;;;5057176;28;20056;-66
2022/09/13 09:54:35;;;;;;;3.60;0.40;;;26.30;84.60;;;;;;5042394;28;20036;-67
2022/09/13 09:57:01;;;;;;;3.92;0.30;;;26.40;85.70;;;;;;5058414;28;20467;-67
2022/09/13 09:59:31;;;;;;;1.52;0.30;;;26.50;84.80;;;;;;5056289;28;20586;-67
2022/09/13 10:01:57;;;;;;;3.92;0.50;;;26.60;82.20;;;;;;5045094;28;20468;-66
2022/09/13 10:04:24;;;;;;;4.15;0.47;;;26.60;84.40;;;;;;5053792;28;20057;-67
2022/09/13 10:07:18;;;;;;;5.55;0.68;;;26.00;79.60;;;;;;5024434;28;20061;-67
2022/09/13 10:10:03;;;;;;;3.15;0.30;;;25.40;77.50;;;;;;5043156;28;20043;-67
2022/09/13 10:12:32;;;;;;;2.38;0.30;;;24.60;78.10;;;;;;5041696;28;20049;-67
2022/09/13 10:15:19;;;;;;;1.95;0.20;;;24.40;80.50;;;;;;5046748;28;20040;-67
2022/09/13 10:18:14;;;;;;;3.90;0.30;;;24.70;79.30;;;;;;5043901;28;20095;-67
2022/09/13 10:20:39;;;;;;;;;;;25.30;80.10;;;;;;5043395;28;20037;-67
2022/09/13 10:23:23;;;;;;;3.60;0.40;;;25.90;76.80;;;;;;5042097;28;19924;-67
2022/09/13 10:26:01;;;;;;;2.42;0.40;;;26.00;79.40;;;;;;5047129;28;20048;-67
2022/09/13 10:28:30;;;;;;;2.30;0.40;;;26.40;76.00;;;;;;5052189;28;20513;-67
2022/09/13 10:31:00;;;;;;;4.63;0.60;;;26.70;77.20;;;;;;5039578;28;20029;-67
2022/09/13 10:33:42;;;;;;;3.47;0.40;;;26.40;72.70;;;;;;5053523;28;20538;-66
2022/09/13 10:36:20;;;;;;;2.80;0.38;;;25.60;73.60;;;;;;5043543;28;20037;-67
2022/09/13 10:39:16;;;;;;;3.33;0.40;;;24.80;75.70;;;;;;5021348;28;20056;-67
2022/09/13 10:41:50;;;;;;;2.40;0.30;;;24.40;76.40;;;;;;5018134;28;20183;-66
2022/09/13 10:44:41;;;;;;;4.47;0.75;;;24.60;78.50;;;;;;5020551;28;20397;-67
2022/09/13 10:47:17;;;;;;;3.40;0.28;;;25.00;75.50;;;;;;5060169;28;20033;-67
2022/09/13 10:49:54;;;;;;;3.05;0.40;;;25.20;77.20;;;;;;5057318;28;20392;-68
2022/09/13 10:52:32;;;;;;;2.90;0.25;;;25.20;75.70;;;;;;5021380;28;20049;-67
2022/09/13 10:55:19;;;;;;;2.63;0.40;;;25.10;72.10;;;;;;5042363;28;20071;-67
2022/09/13 10:57:47;;;;;;;2.92;0.30;;;24.60;68.90;;;;;;5043826;28;20037;-67
2022/09/13 11:00:37;;;;;;;3.55;0.40;;;24.40;73.30;;;;;;5054729;28;20579;-66
2022/09/13 11:03:30;;;;;;;1.85;0.40;;;24.60;75.00;;;;;;5042577;28;20048;-67
2022/09/13 11:06:03;;;;;;;2.92;0.25;;;25.20;71.00;;;;;;5026983;28;20549;-67
2022/09/13 11:08:52;;;;;;;2.85;0.30;;;25.60;69.80;;;;;;5055780;28;20064;-67
2022/09/13 11:11:25;;;;;;;1.17;0.20;;;25.90;70.70;;;;;;5056560;28;20041;-67
2022/09/13 11:14:22;;;;;;;2.13;0.30;;;26.40;68.30;;;;;;5041947;28;20043;-67
2022/09/13 11:17:26;;;;;;;4.50;0.40;;;26.50;64.60;;;;;;5017553;28;20373;-67
2022/09/13 11:19:55;;;;;;;2.80;0.73;;;26.60;64.70;;;;;;5016923;28;20053;-67
2022/09/13 11:22:37;;;;;;;2.90;0.50;;;26.60;64.40;;;;;;5041477;28;20044;-67
2022/09/13 11:25:26;;;;;;;2.80;0.45;;;26.50;62.40;;;;;;5040212;28;20044;-66
2022/09/13 11:28:27;;;;;;;3.85;0.50;;;26.40;64.90;;;;;;5038290;28;20044;-67
2022/09/13 11:31:11;;;;;;;3.83;0.40;;;26.40;64.30;;;;;;5054012;28;20118;-68
2022/09/13 11:33:43;;;;;;;2.53;0.35;;;26.30;62.60;;;;;;5038723;28;20044;-66
2022/09/13 11:36:53;;;;;;;5.47;0.40;;;26.40;61.70;;;;;;5053467;28;20127;-67
2022/09/13 11:39:38;;;;;;;2.83;0.30;;;26.60;61.00;;;;;;5053288;28;20346;-67
2022/09/13 11:42:09;;;;;;;1.92;0.22;;;26.60;61.40;;;;;;5020206;28;20042;-68
2022/09/13 11:44:57;;;;;;;3.65;0.60;;;26.70;64.40;;;;;;5038281;28;20493;-67
2022/09/13 11:47:48;;;;;;;2.17;0.30;;;26.80;61.40;;;;;;5043361;28;20044;-67
2022/09/13 11:50:40;;;;;;;2.20;0.30;;;27.10;60.50;;;;;;5039425;28;20045;-67
2022/09/13 11:53:32;;;;;;;3.25;0.50;;;27.30;62.80;;;;;;5032329;28;20113;-67
2022/09/13 11:56:02;;;;;;;4.13;0.50;;;27.40;61.70;;;;;;5019617;28;20053;-67
2022/09/13 11:58:41;;;;;;;6.40;0.55;;;27.30;61.00;;;;;;5038999;28;20079;-66
2022/09/13 12:01:11;;;;;;;3.72;0.50;;;26.60;63.30;;;;;;5037272;28;20124;-67
2022/09/13 12:03:51;;;;;;;5.50;0.60;;;25.80;65.20;;;;;;5036115;28;20442;-67
2022/09/13 12:06:34;;;;;;;5.60;0.68;;;25.00;65.80;;;;;;5054877;28;20041;-67
2022/09/13 12:09:17;;;;;;;4.72;0.40;;;24.80;68.30;;;;;;5037833;28;20045;-67
2022/09/13 12:11:51;;;;;;;4.38;0.90;;;24.90;66.80;;;;;;5023079;28;20425;-67
2022/09/13 12:14:23;;;;;;;5.43;0.98;;;24.80;67.40;;;;;;5039840;28;20420;-67
2022/09/13 12:16:52;;;;;;;2.95;0.60;;;25.00;67.90;;;;;;5041981;28;20466;-67
2022/09/13 12:19:33;;;;;;;3.35;0.32;;;25.20;67.50;;;;;;5026008;28;20505;-66
2022/09/13 12:22:01;;;;;;;3.83;0.57;;;25.40;65.70;;;;;;5050544;28;20128;-67
2022/09/13 12:24:42;;;;;;;4.47;0.40;;;25.60;64.10;;;;;;5032920;28;20042;-68
2022/09/13 12:27:22;;;;;;;5.53;0.40;;;25.80;65.00;;;;;;5039731;28;20367;-68
2022/09/13 12:29:52;;;;;;;4.25;0.40;;;25.90;64.30;;;;;;5054552;28;20136;-67
2022/09/13 12:32:19;;;;;;;5.10;0.85;;;26.00;63.10;;;;;;5045024;28;20037;-67
2022/09/13 12:34:57;;;;;;;3.05;0.43;;;26.10;62.60;;;;;;5045551;28;20040;-67
2022/09/13 12:37:26;;;;;;;4.45;0.45;;;25.80;62.50;;;;;;5045373;28;20428;-67
2022/09/13 12:40:00;;;;;;;3.60;0.52;;;25.20;63.50;;;;;;5043278;28;20033;-67
2022/09/13 12:42:42;;;;;;;4.47;0.57;;;25.40;63.10;;;;;;5043644;28;20110;-67
2022/09/13 12:45:16;;;;;;;3.63;0.50;;;25.70;62.90;;;;;;5044417;28;20146;-67
2022/09/13 12:48:42;;;;;;;2.35;0.57;;;26.30;62.70;;;;;;5040833;28;20124;-67
2022/09/13 12:51:14;;;;;;;3.22;0.50;;;27.20;62.70;;;;;;4987775;28;20130;-67
2022/09/13 12:54:18;;;;;;;3.10;0.47;;;27.90;56.70;;;;;;4976125;28;20408;-67
2022/09/13 12:56:57;;;;;;;2.58;0.30;;;28.10;55.90;;;;;;5019136;28;20092;-67
2022/09/13 12:59:57;;;;;;;5.10;0.60;;;27.90;57.30;;;;;;5053880;28;20128;-64
2022/09/13 13:02:39;;;;;;;3.58;0.60;;;27.80;57.50;;;;;;5001503;28;20058;-63
2022/09/13 13:05:20;;;;;;;3.90;0.60;;;27.50;56.50;;;;;;5007407;28;20053;-66
2022/09/13 13:07:59;;;;;;;4.75;0.50;;;27.20;56.50;;;;;;5004210;28;20401;-67
2022/09/13 13:10:29;;;;;;;2.60;0.50;;;27.10;58.60;;;;;;5035940;28;20176;-66
2022/09/13 13:12:55;;;;;;;4.72;1.05;;;27.00;57.30;;;;;;5002619;28;20050;-67
2022/09/13 13:15:24;;;;;;;2.38;0.30;;;26.90;57.40;;;;;;5003954;28;20038;-67